Time;durP1;ratioP1;P1;durP2;ratioP2;P2;SDS_P1;SDS_P2;PMS_P1;PMS_P2;Temp;Humidity;BMP_temperature;BMP_pressure;BME280_temperature;BME280_humidity;BME280_pressure;Samples;Min_cycle;Max_cycle;Signal;HPM_P1;HPM_P2
2023/06/05 00:01:46;;;;;;;8.00;2.30;;;;;;;8.39;66.12;101227.55;104034;277;38712;-71
2023/06/05 00:04:23;;;;;;;5.00;2.40;;;;;;;8.36;66.21;101226.90;103889;277;38620;-69
2023/06/05 00:07:02;;;;;;;6.90;2.30;;;;;;;8.33;66.24;101230.75;104069;277;39674;-68
2023/06/05 00:09:36;;;;;;;4.40;2.50;;;;;;;8.31;66.50;101229.39;104027;276;39634;-72
2023/06/05 00:12:12;;;;;;;4.10;2.50;;;;;;;8.30;66.61;101230.98;104116;265;38572;-72
2023/06/05 00:14:48;;;;;;;4.00;2.20;;;;;;;8.29;66.71;101226.30;104049;277;38250;-72
2023/06/05 00:17:24;;;;;;;6.30;2.40;;;;;;;8.29;66.73;101224.20;104044;277;39573;-72
2023/06/05 00:19:59;;;;;;;2.70;2.30;;;;;;;8.28;66.95;101225.09;104078;277;38283;-69
2023/06/05 00:22:35;;;;;;;3.80;2.30;;;;;;;8.27;66.91;101225.98;104070;277;38498;-69
2023/06/05 00:25:11;;;;;;;4.50;2.30;;;;;;;8.24;66.91;101224.80;104053;277;38710;-70
2023/06/05 00:27:47;;;;;;;3.00;2.20;;;;;;;8.20;67.00;101229.37;104051;277;39409;-70
2023/06/05 00:30:22;;;;;;;3.20;2.30;;;;;;;8.14;67.07;101229.11;104016;276;38220;-69
2023/06/05 00:32:56;;;;;;;5.50;2.20;;;;;;;8.11;67.28;101229.52;104043;277;38255;-70
2023/06/05 00:35:36;;;;;;;5.00;2.60;;;;;;;8.10;67.28;101225.87;103997;277;38293;-72
2023/06/05 00:38:13;;;;;;;4.10;2.30;;;;;;;8.07;67.33;101226.27;104010;277;38519;-70
2023/06/05 00:40:49;;;;;;;5.50;2.30;;;;;;;8.02;67.30;101228.58;104047;277;39444;-70
2023/06/05 00:43:23;;;;;;;4.50;2.60;;;;;;;7.97;67.33;101223.45;103381;277;905470;-69
2023/06/05 00:46:03;;;;;;;6.00;3.40;;;;;;;7.94;67.46;101225.39;104028;277;38273;-69
2023/06/05 00:48:36;;;;;;;5.10;2.70;;;;;;;7.92;67.39;101222.13;104081;277;40285;-72
2023/06/05 00:51:18;;;;;;;5.50;2.90;;;;;;;7.88;67.53;101224.79;104032;277;38859;-72
2023/06/05 00:53:51;;;;;;;12.00;3.60;;;;;;;7.82;67.81;101224.52;104089;277;38845;-70
2023/06/05 00:56:26;;;;;;;5.60;3.60;;;;;;;7.75;67.85;101220.60;103877;277;39660;-72
2023/06/05 00:59:05;;;;;;;5.20;3.50;;;;;;;7.72;67.99;101221.16;104110;277;38394;-68
2023/06/05 01:01:42;;;;;;;6.50;3.90;;;;;;;7.69;68.04;101221.73;104071;277;38494;-70
2023/06/05 01:04:17;;;;;;;6.10;4.60;;;;;;;7.66;68.23;101222.63;104016;277;38673;-68
2023/06/05 01:06:51;;;;;;;7.10;4.00;;;;;;;7.66;68.29;101222.30;104002;277;40171;-70
2023/06/05 01:09:27;;;;;;;5.90;3.40;;;;;;;7.64;68.43;101222.84;104029;277;38417;-71
2023/06/05 01:12:06;;;;;;;7.30;3.70;;;;;;;7.57;68.36;101220.48;104031;277;38234;-71
2023/06/05 01:14:46;;;;;;;7.60;3.80;;;;;;;7.53;68.58;101222.10;104067;277;39229;-67
2023/06/05 01:17:24;;;;;;;5.60;3.40;;;;;;;7.45;69.00;101219.24;104052;277;38397;-69
2023/06/05 01:20:09;;;;;;;4.70;3.40;;;;;;;7.45;69.27;101217.66;104059;277;39783;-70
2023/06/05 01:22:44;;;;;;;5.40;3.40;;;;;;;7.47;69.49;101218.70;104023;277;39266;-72
2023/06/05 01:25:21;;;;;;;5.40;2.90;;;;;;;7.47;69.41;101221.30;104022;277;38279;-69
2023/06/05 01:28:01;;;;;;;5.40;3.40;;;;;;;7.46;69.33;101218.89;104009;277;39481;-70
2023/06/05 01:30:38;;;;;;;7.10;4.20;;;;;;;7.42;69.25;101223.97;104035;276;38583;-70
2023/06/05 01:33:13;;;;;;;6.50;5.00;;;;;;;7.38;69.27;101220.01;104043;277;38810;-69
2023/06/05 01:35:51;;;;;;;8.80;4.80;;;;;;;7.34;69.34;101221.96;104043;277;38339;-69
2023/06/05 01:38:27;;;;;;;7.70;5.00;;;;;;;7.32;69.39;101223.38;104001;277;38748;-69
2023/06/05 01:41:03;;;;;;;7.60;5.00;;;;;;;7.31;69.40;101224.43;104076;277;38450;-69
2023/06/05 01:43:38;;;;;;;7.30;4.80;;;;;;;7.30;69.56;101220.63;104012;276;39455;-69
2023/06/05 01:46:16;;;;;;;6.00;4.30;;;;;;;7.25;69.57;101223.80;104070;277;38579;-69
2023/06/05 01:48:52;;;;;;;6.70;4.40;;;;;;;7.20;69.68;101223.33;104054;277;38309;-72
2023/06/05 01:51:29;;;;;;;6.00;3.70;;;;;;;7.16;69.78;101223.54;104059;277;39699;-72
2023/06/05 01:54:05;;;;;;;5.80;3.50;;;;;;;7.16;69.81;101223.39;104054;277;39549;-71
2023/06/05 01:56:43;;;;;;;5.20;3.80;;;;;;;7.16;69.89;101222.33;104061;277;38473;-70
2023/06/05 01:59:19;;;;;;;5.40;3.50;;;;;;;7.18;70.05;101218.48;104054;276;38918;-68
2023/06/05 02:01:53;;;;;;;6.70;3.30;;;;;;;7.18;70.05;101222.14;103869;277;41217;-70
2023/06/05 02:04:29;;;;;;;5.70;4.40;;;;;;;7.16;69.97;101224.77;104014;277;38463;-70
2023/06/05 02:07:05;;;;;;;8.00;4.10;;;;;;;7.11;70.14;101222.73;104005;277;39426;-69
2023/06/05 02:09:47;;;;;;;8.90;4.50;;;;;;;7.09;70.28;101220.15;104044;277;39520;-69
2023/06/05 02:12:26;;;;;;;6.20;4.20;;;;;;;7.07;70.36;101218.95;104029;277;38530;-71
2023/06/05 02:15:00;;;;;;;9.90;4.20;;;;;;;7.04;70.42;101217.94;104062;276;38240;-72
2023/06/05 02:17:36;;;;;;;6.90;4.50;;;;;;;7.02;70.51;101216.58;104018;277;40466;-71
2023/06/05 02:20:15;;;;;;;6.30;4.30;;;;;;;7.01;70.63;101217.79;104017;277;38467;-69
2023/06/05 02:22:51;;;;;;;6.60;4.30;;;;;;;6.99;70.74;101219.73;104020;277;38247;-69
2023/06/05 02:25:26;;;;;;;5.80;4.20;;;;;;;6.97;70.83;101218.52;104076;277;38574;-71
2023/06/05 02:28:02;;;;;;;7.60;4.40;;;;;;;6.98;70.99;101217.65;104030;277;38506;-72
2023/06/05 02:30:37;;;;;;;7.20;4.10;;;;;;;6.99;71.04;101216.95;104097;277;38580;-72
2023/06/05 02:33:11;;;;;;;6.30;4.00;;;;;;;7.00;71.07;101214.17;104056;277;38859;-71
2023/06/05 02:35:48;;;;;;;7.70;4.30;;;;;;;6.99;71.13;101214.52;104108;277;39946;-69
2023/06/05 02:38:24;;;;;;;;;;;;;;;6.98;71.36;101215.92;104108;277;38376;-73
2023/06/05 02:40:58;;;;;;;7.00;4.20;;;;;;;6.93;71.62;101218.91;104096;277;38436;-72
2023/06/05 02:43:34;;;;;;;5.60;4.30;;;;;;;6.91;71.40;101213.03;104076;277;38353;-70
2023/06/05 02:46:11;;;;;;;6.80;3.70;;;;;;;6.88;71.54;101215.33;104050;277;38247;-70
2023/06/05 02:48:44;;;;;;;7.30;4.20;;;;;;;6.87;71.82;101217.06;104073;277;38221;-70
2023/06/05 02:51:19;;;;;;;5.70;3.70;;;;;;;6.89;72.01;101215.84;103808;277;38503;-70
2023/06/05 02:53:55;;;;;;;5.80;4.00;;;;;;;6.91;72.14;101220.33;104073;277;38331;-69
2023/06/05 02:56:32;;;;;;;5.70;3.70;;;;;;;6.93;72.23;101219.25;104004;277;39467;-69
2023/06/05 02:59:08;;;;;;;5.30;3.70;;;;;;;6.96;72.39;101222.36;103837;277;39848;-70
2023/06/05 03:01:49;;;;;;;6.50;3.20;;;;;;;6.98;72.55;101220.60;104045;277;38279;-70
2023/06/05 03:04:24;;;;;;;4.80;3.80;;;;;;;7.00;72.67;101222.33;104049;277;38504;-72
2023/06/05 03:07:02;;;;;;;6.80;3.90;;;;;;;7.05;72.66;101218.81;104015;276;38504;-72
2023/06/05 03:09:38;;;;;;;4.70;3.70;;;;;;;7.11;72.81;101217.52;103980;277;38381;-71
2023/06/05 03:12:18;;;;;;;6.60;3.50;;;;;;;7.19;72.96;101220.74;104029;277;38701;-69
2023/06/05 03:14:53;;;;;;;4.30;3.60;;;;;;;7.25;72.95;101219.13;104042;277;38805;-70
2023/06/05 03:17:30;;;;;;;4.90;3.50;;;;;;;7.30;73.13;101220.11;103927;277;175383;-71
2023/06/05 03:20:09;;;;;;;3.40;3.10;;;;;;;7.39;73.22;101223.64;103561;277;716015;-71
2023/06/05 03:22:43;;;;;;;4.70;3.40;;;;;;;7.46;73.22;101222.70;103879;277;38792;-70
2023/06/05 03:25:23;;;;;;;4.50;3.30;;;;;;;7.54;73.38;101228.52;104075;277;39644;-70
2023/06/05 03:28:04;;;;;;;6.20;4.10;;;;;;;7.64;73.42;101224.57;104082;277;38347;-70
2023/06/05 03:30:40;;;;;;;6.40;4.10;;;;;;;7.74;73.45;101224.80;104040;277;39626;-71
2023/06/05 03:33:17;;;;;;;7.90;3.90;;;;;;;7.87;73.47;101225.49;104020;277;38347;-67
2023/06/05 03:35:59;;;;;;;6.20;3.50;;;;;;;8.27;73.63;101223.89;104053;276;39383;-67
2023/06/05 03:38:38;;;;;;;9.90;3.90;;;;;;;9.05;73.96;101221.56;103859;266;38237;-70
2023/06/05 03:41:13;;;;;;;4.40;3.20;;;;;;;10.03;73.48;101217.53;103922;277;39278;-70
2023/06/05 03:43:51;;;;;;;7.40;3.60;;;;;;;11.16;72.65;101217.57;103825;277;174882;-70
2023/06/05 03:46:31;;;;;;;3.90;3.00;;;;;;;12.33;71.27;101216.09;103892;277;38296;-72
2023/06/05 03:49:09;;;;;;;4.90;3.40;;;;;;;13.44;67.75;101211.96;103900;277;38343;-70
2023/06/05 03:51:47;;;;;;;4.90;3.10;;;;;;;14.40;64.72;101207.63;103836;277;41909;-71
2023/06/05 03:54:25;;;;;;;4.90;3.10;;;;;;;15.32;61.87;101206.88;103318;277;897986;-68
2023/06/05 03:57:00;;;;;;;6.70;3.40;;;;;;;16.22;58.92;101204.52;103925;277;38764;-69
2023/06/05 03:59:34;;;;;;;6.70;3.20;;;;;;;17.03;56.52;101208.77;103897;277;38248;-70
2023/06/05 04:02:08;;;;;;;5.70;3.80;;;;;;;17.79;53.73;101207.20;103924;277;39588;-69
2023/06/05 04:04:50;;;;;;;6.30;3.20;;;;;;;18.56;51.75;101208.16;103953;277;38315;-70
2023/06/05 04:07:27;;;;;;;6.10;3.50;;;;;;;19.28;49.38;101207.48;103987;277;38259;-69
2023/06/05 04:10:06;;;;;;;5.90;3.20;;;;;;;19.92;47.59;101210.21;103966;277;39671;-69
2023/06/05 04:12:39;;;;;;;;;;;;;;;20.54;45.77;101206.88;103943;277;38425;-71
2023/06/05 04:15:20;;;;;;;4.90;3.40;;;;;;;21.05;44.76;101206.83;103987;277;38465;-70
2023/06/05 04:17:55;;;;;;;7.40;3.50;;;;;;;21.69;42.85;101208.58;104004;277;39449;-71
2023/06/05 04:20:29;;;;;;;5.70;3.10;;;;;;;22.15;41.46;101205.83;104000;277;38461;-69
2023/06/05 04:23:13;;;;;;;4.40;3.60;;;;;;;21.95;40.22;101208.14;103960;277;38248;-71
2023/06/05 04:25:54;;;;;;;4.80;3.80;;;;;;;21.29;40.84;101213.19;103950;277;39578;-70
2023/06/05 04:28:31;;;;;;;7.90;3.30;;;;;;;20.53;41.53;101216.55;103983;277;38406;-69
2023/06/05 04:31:05;;;;;;;7.80;3.40;;;;;;;19.93;42.71;101223.23;103805;279;38407;-73
2023/06/05 04:33:39;;;;;;;10.30;3.80;;;;;;;19.35;43.76;101225.08;103939;277;38481;-73
2023/06/05 04:36:17;;;;;;;8.10;4.60;;;;;;;18.83;44.84;101222.88;103908;277;38218;-73
2023/06/05 04:38:51;;;;;;;51.30;7.70;;;;;;;18.39;45.58;101228.43;103956;277;38730;-71
2023/06/05 04:41:28;;;;;;;50.40;8.30;;;;;;;18.04;46.11;101230.05;103953;277;38631;-73
2023/06/05 04:44:02;;;;;;;47.00;8.60;;;;;;;17.90;47.22;101231.70;103959;277;39895;-71
2023/06/05 04:46:39;;;;;;;55.50;8.80;;;;;;;17.92;47.67;101232.46;103990;266;38429;-72
2023/06/05 04:49:14;;;;;;;52.20;7.50;;;;;;;17.85;48.04;101236.73;103964;277;39425;-70
2023/06/05 04:51:48;;;;;;;47.70;8.90;;;;;;;18.03;48.81;101235.91;103989;277;38288;-69
2023/06/05 04:54:23;;;;;;;55.90;7.90;;;;;;;18.16;47.65;101235.55;103973;277;39648;-73
2023/06/05 04:57:01;;;;;;;57.50;8.80;;;;;;;18.26;47.88;101228.83;103996;277;38234;-70
2023/06/05 04:59:46;;;;;;;58.70;9.50;;;;;;;18.70;48.89;101225.08;104018;277;38234;-70
2023/06/05 05:02:23;;;;;;;59.70;9.60;;;;;;;19.77;48.70;101225.14;103894;277;39348;-69
2023/06/05 05:05:01;;;;;;;55.90;8.50;;;;;;;20.93;45.80;101222.19;104030;277;38490;-71
2023/06/05 05:07:45;;;;;;;43.60;8.20;;;;;;;22.20;44.61;101220.39;104027;277;38261;-69
2023/06/05 05:10:25;;;;;;;40.60;8.80;;;;;;;23.55;42.68;101224.00;104022;277;38691;-68
2023/06/05 05:13:02;;;;;;;31.70;5.50;;;;;;;24.64;39.27;101221.02;104046;277;39606;-69
2023/06/05 05:15:37;;;;;;;12.50;4.10;;;;;;;25.65;36.39;101219.58;103938;277;174383;-70
2023/06/05 05:18:19;;;;;;;22.30;4.60;;;;;;;26.52;35.49;101217.31;104006;277;39504;-69
2023/06/05 05:20:57;;;;;;;15.10;4.50;;;;;;;27.31;33.93;101219.23;103884;277;174278;-68
2023/06/05 05:23:34;;;;;;;19.80;5.00;;;;;;;27.90;32.17;101216.54;103991;277;39418;-70
2023/06/05 05:26:10;;;;;;;18.40;5.50;;;;;;;28.51;31.75;101218.95;103991;277;38231;-68
2023/06/05 05:28:44;;;;;;;18.20;4.10;;;;;;;29.05;29.98;101214.58;104029;277;38286;-70
2023/06/05 05:31:18;;;;;;;10.50;3.70;;;;;;;29.31;28.58;101219.29;103983;277;38711;-71
2023/06/05 05:33:55;;;;;;;17.50;4.20;;;;;;;29.66;27.89;101219.70;103986;277;38252;-70
2023/06/05 05:36:33;;;;;;;14.60;4.20;;;;;;;29.89;27.81;101217.33;104028;277;38805;-72
2023/06/05 05:39:12;;;;;;;21.80;4.20;;;;;;;30.26;27.04;101216.77;103967;277;38924;-70
2023/06/05 05:41:46;;;;;;;14.50;4.30;;;;;;;30.61;26.80;101219.12;103996;277;38382;-73
2023/06/05 05:44:24;;;;;;;11.30;3.60;;;;;;;30.80;26.18;101214.66;104000;277;38224;-70
2023/06/05 05:47:03;;;;;;;7.00;2.30;;;;;;;31.19;25.79;101215.52;103908;277;174056;-69
2023/06/05 05:49:37;;;;;;;6.40;2.30;;;;;;;31.64;23.84;101214.73;104041;277;38580;-70
2023/06/05 05:52:14;;;;;;;6.00;1.50;;;;;;;31.83;22.76;101214.20;104040;277;38223;-69
2023/06/05 05:54:58;;;;;;;5.10;1.40;;;;;;;32.08;22.70;101217.41;104016;277;38536;-70
2023/06/05 05:57:33;;;;;;;7.00;1.40;;;;;;;32.64;21.47;101216.91;103962;277;39434;-71
2023/06/05 06:00:13;;;;;;;3.50;1.20;;;;;;;33.09;21.10;101215.48;103869;277;38403;-71
2023/06/05 06:02:53;;;;;;;7.60;1.40;;;;;;;33.39;20.34;101214.16;103801;277;187243;-71
2023/06/05 06:05:33;;;;;;;3.60;1.10;;;;;;;33.65;20.52;101215.34;103939;277;39696;-70
2023/06/05 06:08:08;;;;;;;4.70;1.20;;;;;;;33.89;19.82;101217.95;103962;277;38284;-70
2023/06/05 06:10:45;;;;;;;5.90;1.40;;;;;;;34.16;19.42;101217.98;103943;277;38528;-70
2023/06/05 06:13:20;;;;;;;;;;;;;;;34.46;18.31;101215.76;103894;277;39916;-70
2023/06/05 06:15:55;;;;;;;5.40;1.40;;;;;;;34.63;18.33;101216.64;103903;277;38639;-70
2023/06/05 06:18:31;;;;;;;2.70;1.00;;;;;;;34.89;17.52;101214.08;103936;277;38268;-70
2023/06/05 06:21:10;;;;;;;3.70;1.30;;;;;;;34.95;17.36;101215.02;103942;277;38694;-70
2023/06/05 06:23:48;;;;;;;2.70;1.10;;;;;;;34.84;17.78;101215.17;103886;277;38663;-70
2023/06/05 06:26:23;;;;;;;5.30;1.50;;;;;;;34.88;17.69;101219.90;103955;277;38280;-70
2023/06/05 06:28:59;;;;;;;3.40;1.20;;;;;;;34.98;17.72;101218.03;103957;277;38279;-70
2023/06/05 06:31:40;;;;;;;4.90;1.40;;;;;;;35.21;16.73;101215.17;103962;277;38526;-70
2023/06/05 06:34:16;;;;;;;4.30;1.20;;;;;;;35.52;16.66;101216.94;103924;277;38273;-70
2023/06/05 06:36:55;;;;;;;4.70;1.70;;;;;;;35.70;16.59;101215.51;103973;277;39482;-70
2023/06/05 06:39:32;;;;;;;4.30;1.20;;;;;;;35.89;15.96;101215.34;103955;277;38487;-70
2023/06/05 06:42:06;;;;;;;2.30;1.30;;;;;;;36.00;16.03;101215.73;103951;277;38531;-71
2023/06/05 06:44:43;;;;;;;2.50;1.10;;;;;;;36.05;15.73;101217.20;103812;277;173875;-70
2023/06/05 06:47:17;;;;;;;3.80;1.10;;;;;;;36.11;15.35;101217.65;103942;277;40169;-71
2023/06/05 06:49:56;;;;;;;3.80;1.40;;;;;;;36.10;15.55;101220.04;103920;277;38465;-71
2023/06/05 06:52:32;;;;;;;2.40;0.90;;;;;;;36.18;14.82;101222.90;103942;277;38358;-71
2023/06/05 06:55:07;;;;;;;3.10;0.90;;;;;;;36.16;14.79;101215.36;103917;277;39335;-71
2023/06/05 06:57:41;;;;;;;1.90;0.90;;;;;;;36.15;14.50;101217.45;103930;277;38433;-71
2023/06/05 07:00:16;;;;;;;2.50;0.90;;;;;;;36.21;14.89;101217.71;103960;277;38610;-71
2023/06/05 07:02:52;;;;;;;4.20;0.90;;;;;;;36.19;14.62;101218.55;103859;277;38582;-71
2023/06/05 07:05:26;;;;;;;2.90;1.00;;;;;;;36.11;15.19;101215.77;103913;277;38270;-71
2023/06/05 07:08:03;;;;;;;5.10;1.20;;;;;;;35.96;14.91;101211.82;103924;277;38262;-70
2023/06/05 07:10:37;;;;;;;2.80;0.90;;;;;;;35.79;14.42;101213.11;103892;277;39013;-70
2023/06/05 07:13:14;;;;;;;2.90;1.10;;;;;;;35.53;14.85;101213.38;103773;278;39761;-70
2023/06/05 07:15:53;;;;;;;3.50;1.00;;;;;;;35.49;14.99;101216.91;103936;277;38408;-71
2023/06/05 07:18:31;;;;;;;3.30;0.90;;;;;;;35.64;15.00;101221.60;103927;277;39339;-71
2023/06/05 07:21:12;;;;;;;3.60;1.20;;;;;;;35.77;14.28;101218.31;103832;277;38237;-71
2023/06/05 07:23:53;;;;;;;2.50;1.00;;;;;;;35.66;14.54;101224.08;103972;277;38248;-71
2023/06/05 07:26:28;;;;;;;3.10;1.50;;;;;;;35.94;14.74;101221.60;103952;277;39476;-71
2023/06/05 07:29:05;;;;;;;3.70;0.90;;;;;;;36.27;14.54;101225.27;103936;277;38253;-69
2023/06/05 07:31:48;;;;;;;1.20;1.00;;;;;;;36.49;14.07;101226.55;103987;277;39045;-70
2023/06/05 07:34:27;;;;;;;3.40;1.00;;;;;;;36.53;13.69;101224.41;103956;277;38890;-70
2023/06/05 07:37:03;;;;;;;2.90;1.00;;;;;;;36.32;14.09;101223.35;103930;277;38251;-70
2023/06/05 07:39:38;;;;;;;4.50;1.00;;;;;;;36.53;14.46;101223.63;103966;277;38415;-71
2023/06/05 07:42:12;;;;;;;3.80;1.30;;;;;;;36.70;14.21;101222.16;103936;277;39380;-71
2023/06/05 07:44:49;;;;;;;3.70;1.20;;;;;;;36.83;13.63;101220.99;103935;277;39578;-70
2023/06/05 07:47:24;;;;;;;1.80;1.10;;;;;;;36.64;13.45;101223.13;103940;277;39935;-70
2023/06/05 07:50:06;;;;;;;4.00;1.40;;;;;;;36.28;13.46;101214.88;103964;277;38228;-70
2023/06/05 07:52:40;;;;;;;2.90;1.20;;;;;;;36.01;13.84;101211.88;103961;277;39399;-70
2023/06/05 07:55:24;;;;;;;4.50;1.20;;;;;;;36.08;14.12;101210.60;103904;277;38711;-70
2023/06/05 07:58:01;;;;;;;3.60;1.10;;;;;;;36.21;14.33;101212.77;103900;277;38603;-71
2023/06/05 08:00:36;;;;;;;5.80;1.10;;;;;;;36.36;14.50;101215.60;103932;277;38278;-71
2023/06/05 08:03:13;;;;;;;2.30;1.30;;;;;;;36.43;13.64;101211.36;103917;277;38245;-70
2023/06/05 08:05:47;;;;;;;3.00;1.00;;;;;;;36.48;14.08;101212.21;103956;277;38795;-70
2023/06/05 08:08:26;;;;;;;2.40;1.00;;;;;;;36.82;13.65;101210.71;103936;277;38494;-69
2023/06/05 08:11:00;;;;;;;4.80;1.20;;;;;;;37.02;12.90;101213.77;103978;277;38553;-70
2023/06/05 08:13:40;;;;;;;2.10;1.10;;;;;;;37.13;13.03;101214.27;104016;266;39245;-70
2023/06/05 08:16:18;;;;;;;4.00;1.00;;;;;;;37.41;12.11;101210.05;103946;277;38635;-70
2023/06/05 08:18:55;;;;;;;2.60;1.20;;;;;;;37.41;12.52;101213.35;103976;277;39696;-71
2023/06/05 08:21:30;;;;;;;5.00;1.20;;;;;;;37.68;12.31;101210.98;103987;277;38258;-71
2023/06/05 08:24:06;;;;;;;2.90;1.20;;;;;;;37.62;12.11;101204.23;103987;277;38471;-70
2023/06/05 08:26:43;;;;;;;1.80;1.00;;;;;;;37.40;13.09;101204.66;103973;277;38271;-70
2023/06/05 08:29:23;;;;;;;5.50;1.30;;;;;;;37.46;11.97;101204.24;103820;277;38261;-70
2023/06/05 08:32:02;;;;;;;4.20;1.20;;;;;;;37.29;12.08;101203.69;103974;277;38289;-70
2023/06/05 08:34:40;;;;;;;1.80;0.90;;;;;;;37.46;11.88;101204.17;103993;277;39435;-70
2023/06/05 08:37:17;;;;;;;2.40;0.80;;;;;;;37.54;11.41;101205.95;103965;277;38253;-70
2023/06/05 08:40:00;;;;;;;;;;;;;;;37.56;11.75;101208.45;103997;277;38486;-70
2023/06/05 08:42:40;;;;;;;2.20;0.90;;;;;;;37.59;11.67;101207.69;103991;277;39738;-70
2023/06/05 08:45:24;;;;;;;4.90;1.30;;;;;;;37.67;11.33;101208.73;103992;277;38428;-70
2023/06/05 08:48:03;;;;;;;3.10;1.30;;;;;;;37.49;11.42;101205.34;103973;277;38540;-70
2023/06/05 08:50:45;;;;;;;3.80;1.10;;;;;;;37.39;11.89;101205.82;103998;277;38844;-70
2023/06/05 08:53:21;;;;;;;2.50;0.90;;;;;;;37.31;11.96;101210.69;104009;277;38819;-70
2023/06/05 08:56:03;;;;;;;2.80;1.10;;;;;;;37.55;11.86;101210.83;103879;266;173938;-70
2023/06/05 08:58:40;;;;;;;2.60;0.90;;;;;;;37.84;11.60;101208.86;103998;277;40005;-72
2023/06/05 09:01:17;;;;;;;1.60;1.00;;;;;;;37.70;10.83;101207.23;103974;277;39396;-69
2023/06/05 09:03:54;;;;;;;3.70;1.10;;;;;;;37.30;11.83;101199.25;104066;277;38530;-70
2023/06/05 09:06:33;;;;;;;2.30;0.90;;;;;;;37.12;11.66;101196.67;104039;277;38268;-70
2023/06/05 09:09:08;;;;;;;2.90;1.00;;;;;;;36.88;11.91;101199.80;103989;277;38241;-71
2023/06/05 09:11:48;;;;;;;3.40;1.30;;;;;;;36.44;11.89;101196.13;104012;277;38237;-71
2023/06/05 09:14:34;;;;;;;2.70;1.00;;;;;;;36.13;12.32;101200.63;104004;277;38520;-70
2023/06/05 09:17:18;;;;;;;3.10;1.10;;;;;;;35.73;13.04;101190.60;103999;277;38355;-70
2023/06/05 09:20:26;;;;;;;4.00;0.90;;;;;;;35.22;13.26;101195.34;104064;277;38721;-76
2023/06/05 09:23:05;;;;;;;2.60;1.10;;;;;;;34.61;13.36;101199.30;104036;277;38258;-76
2023/06/05 09:25:55;;;;;;;3.00;0.90;;;;;;;34.17;13.13;101193.06;103839;277;39417;-76
2023/06/05 09:28:31;;;;;;;4.40;1.10;;;;;;;33.38;13.56;101191.80;103873;279;38235;-74
2023/06/05 09:31:12;;;;;;;2.30;1.20;;;;;;;32.85;14.05;101194.34;103976;277;39619;-74
2023/06/05 09:33:57;;;;;;;3.90;1.30;;;;;;;32.39;14.82;101196.38;104046;277;38227;-76
2023/06/05 09:36:40;;;;;;;2.30;1.00;;;;;;;32.18;15.51;101196.95;103996;277;38441;-77
2023/06/05 09:39:21;;;;;;;0.90;0.70;;;;;;;31.95;15.07;101196.95;104070;277;38230;-76
2023/06/05 09:42:00;;;;;;;2.00;1.00;;;;;;;31.69;15.15;101188.94;104033;277;38310;-76
2023/06/05 09:44:38;;;;;;;1.80;1.00;;;;;;;31.33;14.88;101184.94;104283;277;38267;-79
2023/06/05 09:47:15;;;;;;;3.20;1.00;;;;;;;30.92;15.30;101185.35;104392;277;38225;-79
2023/06/05 09:49:57;;;;;;;3.50;1.00;;;;;;;30.55;15.38;101186.75;104085;277;38307;-76
2023/06/05 09:52:35;;;;;;;4.30;1.10;;;;;;;30.30;16.61;101183.02;104071;277;39694;-76
2023/06/05 09:55:13;;;;;;;2.30;1.10;;;;;;;30.28;17.09;101182.09;104032;277;38556;-76
2023/06/05 09:57:54;;;;;;;3.70;1.10;;;;;;;30.30;17.13;101184.93;103949;277;38566;-74
2023/06/05 10:00:34;;;;;;;2.40;1.40;;;;;;;30.25;16.95;101179.11;103883;277;39297;-78
2023/06/05 10:03:16;;;;;;;3.20;1.20;;;;;;;30.15;16.37;101173.90;103858;277;171593;-75
2023/06/05 10:05:53;;;;;;;2.30;1.10;;;;;;;29.83;16.97;101175.09;103963;277;39610;-75
2023/06/05 10:08:31;;;;;;;2.30;1.10;;;;;;;29.85;17.26;101170.48;104012;266;39384;-77
2023/06/05 10:11:06;;;;;;;3.00;1.10;;;;;;;29.86;17.85;101169.84;104076;277;38269;-77
2023/06/05 10:13:49;;;;;;;4.60;1.30;;;;;;;29.81;17.39;101167.36;104044;277;38365;-74
2023/06/05 10:16:35;;;;;;;2.20;1.10;;;;;;;29.78;17.68;101160.40;104021;277;39654;-74
2023/06/05 10:19:18;;;;;;;2.10;1.20;;;;;;;29.72;17.87;101156.80;103980;277;38282;-77
2023/06/05 10:21:53;;;;;;;2.20;1.10;;;;;;;29.56;17.57;101152.80;104019;278;39416;-76
2023/06/05 10:24:33;;;;;;;3.70;1.10;;;;;;;29.44;19.17;101149.52;104025;277;38862;-76
2023/06/05 10:27:52;;;;;;;4.00;1.30;;;;;;;29.40;18.86;101147.52;103845;277;174439;-76
2023/06/05 10:31:03;;;;;;;4.20;1.30;;;;;;;29.33;18.74;101152.34;103913;277;38804;-73
2023/06/05 10:33:59;;;;;;;5.20;1.50;;;;;;;29.27;19.39;101154.27;103900;277;38227;-73
2023/06/05 10:36:56;;;;;;;2.90;1.40;;;;;;;29.25;18.95;101153.55;104023;269;38396;-74
2023/06/05 10:39:51;;;;;;;3.40;1.20;;;;;;;29.01;18.35;101149.83;104011;277;38234;-73
2023/06/05 10:42:40;;;;;;;4.80;1.60;;;;;;;28.77;18.34;101151.55;103923;277;38958;-73
2023/06/05 10:45:37;;;;;;;3.70;1.80;;;;;;;28.64;18.57;101147.45;103997;277;38264;-76
2023/06/05 10:48:12;;;;;;;4.00;1.60;;;;;;;28.51;18.18;101147.04;103962;277;40805;-72
2023/06/05 10:50:52;;;;;;;2.70;1.10;;;;;;;28.22;18.36;101144.36;103805;277;174311;-69
2023/06/05 10:53:48;;;;;;;2.30;1.30;;;;;;;28.02;18.29;101143.98;103898;277;38571;-69
2023/06/05 10:56:59;;;;;;;4.60;1.20;;;;;;;27.77;18.36;101138.20;103912;277;38307;-70
2023/06/05 10:59:35;;;;;;;2.60;0.90;;;;;;;27.48;19.11;101141.55;103914;277;38275;-71
2023/06/05 11:02:30;;;;;;;1.90;1.20;;;;;;;27.45;19.58;101139.75;103964;276;38382;-72
2023/06/05 11:05:24;;;;;;;3.90;1.10;;;;;;;27.43;19.49;101137.63;103854;277;187588;-71
2023/06/05 11:08:16;;;;;;;2.30;1.20;;;;;;;27.39;20.24;101137.11;103923;277;38508;-71
2023/06/05 11:11:09;;;;;;;1.80;1.10;;;;;;;27.39;20.56;101136.54;103962;277;38218;-69
2023/06/05 11:13:58;;;;;;;2.10;1.20;;;;;;;27.36;20.14;101134.20;103846;277;174386;-71
2023/06/05 11:16:37;;;;;;;4.40;1.10;;;;;;;27.30;20.37;101129.01;103927;277;38270;-70
2023/06/05 11:19:38;;;;;;;2.90;1.30;;;;;;;27.29;20.22;101130.77;103928;277;38308;-70
2023/06/05 11:22:17;;;;;;;1.90;1.30;;;;;;;27.16;19.48;101127.16;103314;277;769201;-69
2023/06/05 11:25:04;;;;;;;2.70;1.20;;;;;;;26.96;19.70;101120.59;103902;277;39313;-71
2023/06/05 11:27:53;;;;;;;3.10;1.00;;;;;;;26.87;19.91;101114.65;103822;277;39535;-71
2023/06/05 11:30:29;;;;;;;;;;;;;;;26.76;20.17;101115.02;103953;277;38424;-72
2023/06/05 11:33:12;;;;;;;7.90;1.70;;;;;;;26.66;20.32;101113.27;103905;277;38896;-69
2023/06/05 11:35:52;;;;;;;3.40;1.30;;;;;;;26.58;20.14;101118.48;103920;277;38489;-69
2023/06/05 11:38:30;;;;;;;4.00;1.20;;;;;;;26.45;20.02;101113.23;103995;277;39887;-70
2023/06/05 11:41:09;;;;;;;2.80;1.10;;;;;;;26.34;20.43;101106.38;103983;277;39505;-70
2023/06/05 11:43:51;;;;;;;5.20;1.40;;;;;;;26.31;20.58;101107.20;103930;277;38873;-72
2023/06/05 11:46:40;;;;;;;4.40;1.50;;;;;;;26.25;20.47;101100.96;103804;277;39021;-74
2023/06/05 11:49:29;;;;;;;8.50;1.40;;;;;;;26.20;20.67;101096.78;103968;277;38260;-69
2023/06/05 11:52:04;;;;;;;3.10;1.00;;;;;;;26.13;21.31;101100.77;103934;277;38283;-70
2023/06/05 11:54:45;;;;;;;4.30;1.20;;;;;;;26.15;20.70;101097.05;103966;277;39162;-70
2023/06/05 11:57:27;;;;;;;1.90;1.20;;;;;;;26.11;20.73;101096.20;103945;277;39408;-71
2023/06/05 12:00:01;;;;;;;2.00;1.30;;;;;;;26.08;20.76;101096.30;104005;277;38269;-70
2023/06/05 12:02:38;;;;;;;3.00;1.10;;;;;;;26.04;20.61;101088.41;103871;277;189034;-70
2023/06/05 12:05:13;;;;;;;3.00;1.20;;;;;;;26.03;20.80;101094.42;103974;277;38223;-71
2023/06/05 12:07:58;;;;;;;2.70;1.30;;;;;;;25.99;20.47;101092.77;103880;277;39745;-70
2023/06/05 12:10:44;;;;;;;3.00;1.50;;;;;;;25.89;20.14;101090.31;104013;266;38218;-72
2023/06/05 12:13:21;;;;;;;3.50;1.50;;;;;;;25.78;20.58;101091.31;104012;277;38244;-72
2023/06/05 12:16:02;;;;;;;5.90;2.40;;;;;;;25.77;20.53;101086.27;104029;277;39154;-71
2023/06/05 12:18:49;;;;;;;3.10;1.20;;;;;;;25.72;20.45;101087.74;104068;277;38505;-73
2023/06/05 12:21:30;;;;;;;5.80;2.80;;;;;;;25.63;20.55;101085.55;104017;277;38480;-71